Time;durP1;ratioP1;P1;durP2;ratioP2;P2;SDS_P1;SDS_P2;PMS_P1;PMS_P2;Temp;Humidity;BMP_temperature;BMP_pressure;BME280_temperature;BME280_humidity;BME280_pressure;Samples;Min_cycle;Max_cycle;Signal;HPM_P1;HPM_P2
2021/11/02 00:00:55;;;;;;;4.00;1.20;;;8.50;92.30;;;;;;5077891;28;20021;-75
2021/11/02 00:03:21;;;;;;;4.72;1.40;;;8.40;92.10;;;;;;5077928;28;20077;-75
2021/11/02 00:05:47;;;;;;;6.82;1.63;;;8.40;92.30;;;;;;5077760;28;20495;-75
2021/11/02 00:08:13;;;;;;;4.90;1.77;;;8.40;92.30;;;;;;5077705;28;20039;-75
2021/11/02 00:10:40;;;;;;;4.07;1.40;;;8.40;92.40;;;;;;5077823;28;20025;-75
2021/11/02 00:13:06;;;;;;;4.15;1.40;;;8.40;92.50;;;;;;5071351;28;20499;-75
2021/11/02 00:15:34;;;;;;;7.85;1.55;;;8.40;92.60;;;;;;5077751;28;20032;-75
2021/11/02 00:18:05;;;;;;;4.25;1.60;;;8.30;92.60;;;;;;5077582;28;20132;-75
2021/11/02 00:20:32;;;;;;;6.95;2.03;;;8.30;92.50;;;;;;5077927;28;20032;-75
2021/11/02 00:22:59;;;;;;;8.70;1.83;;;8.30;92.70;;;;;;5077626;28;20023;-75
2021/11/02 00:25:28;;;;;;;4.15;1.88;;;8.30;92.80;;;;;;5076385;28;20020;-75
2021/11/02 00:27:55;;;;;;;4.53;1.52;;;8.30;93.00;;;;;;5077979;28;20063;-75
2021/11/02 00:30:22;;;;;;;6.90;2.17;;;8.30;93.30;;;;;;5076392;28;20444;-76
2021/11/02 00:32:51;;;;;;;4.18;1.60;;;8.30;93.20;;;;;;5077671;28;20029;-76
2021/11/02 00:35:18;;;;;;;5.72;1.50;;;8.30;93.30;;;;;;5077507;28;20130;-73
2021/11/02 00:37:45;;;;;;;12.18;1.73;;;8.30;93.40;;;;;;5076708;28;20125;-75
2021/11/02 00:40:14;;;;;;;8.00;2.28;;;8.30;93.50;;;;;;5077343;28;20099;-75
2021/11/02 00:42:51;;;;;;;4.05;1.40;;;8.30;93.40;;;;;;5077526;28;20017;-75
2021/11/02 00:45:27;;;;;;;4.18;1.30;;;8.30;93.40;;;;;;5077482;28;20020;-75
2021/11/02 00:47:53;;;;;;;7.43;1.40;;;8.20;93.50;;;;;;5077377;28;20513;-76
2021/11/02 00:50:20;;;;;;;4.50;1.65;;;8.30;93.70;;;;;;5077350;28;20048;-75
2021/11/02 00:52:46;;;;;;;6.00;1.55;;;8.20;93.80;;;;;;5077070;28;20032;-77
2021/11/02 00:55:12;;;;;;;5.85;1.90;;;8.20;93.80;;;;;;5075794;28;20079;-76
2021/11/02 00:57:38;;;;;;;4.68;1.48;;;8.20;94.00;;;;;;5075960;28;20020;-75
2021/11/02 01:00:06;;;;;;;5.20;1.77;;;8.20;94.00;;;;;;5075877;28;20082;-76
2021/11/02 01:02:32;;;;;;;8.98;1.88;;;8.30;94.00;;;;;;5076873;28;20447;-76
2021/11/02 01:04:58;;;;;;;6.40;1.67;;;8.20;94.00;;;;;;5077125;28;20435;-76
2021/11/02 01:07:24;;;;;;;8.05;2.00;;;8.20;94.00;;;;;;5076821;28;20100;-76
2021/11/02 01:09:50;;;;;;;13.85;2.13;;;8.20;94.00;;;;;;5076968;28;20496;-76
2021/11/02 01:12:16;;;;;;;4.72;1.42;;;8.20;93.90;;;;;;5077211;28;20146;-76
2021/11/02 01:14:43;;;;;;;6.43;1.60;;;8.20;93.90;;;;;;5076997;28;20033;-76
2021/11/02 01:17:09;;;;;;;3.10;1.25;;;8.10;93.80;;;;;;5077853;28;20024;-76
2021/11/02 01:19:36;;;;;;;6.20;1.42;;;8.10;93.80;;;;;;5081123;28;20020;-76
2021/11/02 01:22:02;;;;;;;3.47;1.40;;;8.10;93.90;;;;;;5081359;28;20024;-76
2021/11/02 01:24:28;;;;;;;3.90;1.40;;;8.10;93.90;;;;;;5079453;28;20020;-76
2021/11/02 01:26:54;;;;;;;4.78;1.50;;;8.00;93.90;;;;;;5081158;28;20491;-76
2021/11/02 01:29:20;;;;;;;4.53;1.83;;;8.00;93.90;;;;;;5071752;28;20021;-76
2021/11/02 01:31:47;;;;;;;6.03;1.35;;;8.00;94.10;;;;;;5092936;28;20035;-76
2021/11/02 01:34:13;;;;;;;5.78;2.08;;;8.00;94.10;;;;;;5081140;28;20490;-76
2021/11/02 01:36:40;;;;;;;3.90;1.40;;;8.00;94.10;;;;;;5080800;28;20037;-76
2021/11/02 01:39:07;;;;;;;5.30;1.80;;;8.00;94.20;;;;;;5080495;28;20024;-76
2021/11/02 01:41:35;;;;;;;5.30;1.50;;;8.00;94.20;;;;;;5080750;28;20394;-76
2021/11/02 01:44:02;;;;;;;5.32;1.60;;;8.00;94.30;;;;;;5080838;28;20032;-76
2021/11/02 01:46:34;;;;;;;6.10;1.70;;;8.00;94.30;;;;;;5080668;28;20021;-75
2021/11/02 01:49:02;;;;;;;8.07;1.65;;;7.90;94.20;;;;;;5079538;28;20032;-74
2021/11/02 01:51:30;;;;;;;7.03;2.05;;;7.90;94.20;;;;;;5080609;28;20032;-75
2021/11/02 01:53:56;;;;;;;3.80;1.42;;;7.90;94.30;;;;;;5079866;28;20372;-75
2021/11/02 01:56:22;;;;;;;6.95;1.15;;;7.80;94.30;;;;;;5079157;28;20048;-75
2021/11/02 01:58:53;;;;;;;5.22;1.77;;;7.80;94.20;;;;;;5080582;28;20040;-75
2021/11/02 02:01:38;;;;;;;4.88;1.60;;;7.80;94.10;;;;;;5080487;28;20027;-75
2021/11/02 02:04:27;;;;;;;6.85;1.50;;;7.80;94.40;;;;;;5077424;28;20028;-75
2021/11/02 02:07:17;;;;;;;5.32;1.95;;;7.80;94.30;;;;;;5080474;28;20024;-75
2021/11/02 02:10:16;;;;;;;4.43;1.75;;;7.70;94.50;;;;;;5069703;28;20024;-74
2021/11/02 02:12:49;;;;;;;5.28;1.58;;;7.70;94.40;;;;;;5062760;28;20558;-75
2021/11/02 02:15:27;;;;;;;4.53;1.48;;;7.70;94.60;;;;;;5078490;28;20078;-76
2021/11/02 02:18:05;;;;;;;4.97;1.40;;;7.70;94.60;;;;;;5079820;28;20025;-75
2021/11/02 02:20:56;;;;;;;7.93;1.98;;;7.70;94.80;;;;;;5079434;28;20032;-75
2021/11/02 02:24:08;;;;;;;5.07;1.65;;;7.70;94.70;;;;;;5079169;28;20038;-75
2021/11/02 02:26:58;;;;;;;5.53;2.28;;;7.70;94.80;;;;;;5062720;28;20064;-74
2021/11/02 02:29:25;;;;;;;5.00;1.35;;;7.60;94.90;;;;;;5083068;28;20441;-74
2021/11/02 02:31:55;;;;;;;6.25;1.70;;;7.60;94.80;;;;;;5092413;28;20491;-75
2021/11/02 02:34:22;;;;;;;5.85;1.50;;;7.60;95.00;;;;;;5079729;28;20493;-75
2021/11/02 02:36:51;;;;;;;9.07;1.80;;;7.60;95.10;;;;;;5079492;28;20036;-75
2021/11/02 02:39:19;;;;;;;4.57;1.45;;;7.60;94.90;;;;;;5079215;28;20059;-75
2021/11/02 02:41:47;;;;;;;6.07;1.67;;;7.60;94.90;;;;;;5079417;28;20109;-75
2021/11/02 02:44:15;;;;;;;4.05;1.38;;;7.60;94.90;;;;;;5079742;28;20084;-75
2021/11/02 02:46:41;;;;;;;5.45;1.50;;;7.60;95.10;;;;;;5078585;28;20059;-75
2021/11/02 02:49:12;;;;;;;4.88;1.45;;;7.60;95.10;;;;;;5079586;28;20028;-75
2021/11/02 02:51:42;;;;;;;6.78;1.45;;;7.60;95.10;;;;;;5066822;28;20063;-74
2021/11/02 02:54:13;;;;;;;7.00;1.88;;;7.50;95.10;;;;;;5078666;28;20021;-75
2021/11/02 02:56:46;;;;;;;7.72;1.80;;;7.50;95.10;;;;;;5068148;28;20025;-74
2021/11/02 02:59:12;;;;;;;4.50;1.23;;;7.50;95.10;;;;;;5079176;28;20503;-75
2021/11/02 03:01:39;;;;;;;4.88;1.40;;;7.50;95.10;;;;;;5079046;28;20021;-75
2021/11/02 03:04:19;;;;;;;5.32;1.80;;;7.50;95.10;;;;;;5077607;28;20023;-75
2021/11/02 03:06:46;;;;;;;8.48;1.40;;;7.50;95.20;;;;;;5079204;28;20032;-75
2021/11/02 03:09:13;;;;;;;5.15;1.60;;;7.50;95.20;;;;;;5078584;28;20472;-75
2021/11/02 03:11:41;;;;;;;8.20;1.70;;;7.50;95.20;;;;;;5079068;28;20028;-75
2021/11/02 03:14:13;;;;;;;3.80;1.20;;;7.40;95.20;;;;;;5077815;28;20098;-75
2021/11/02 03:16:54;;;;;;;5.60;1.30;;;7.50;95.40;;;;;;5078791;28;20040;-75
2021/11/02 03:19:58;;;;;;;5.93;1.50;;;7.50;95.60;;;;;;5078517;28;20090;-75
2021/11/02 03:56:06;;;;;;;5.63;1.73;;;7.20;95.50;;;;;;5071081;28;20095;-75
2021/11/02 03:58:29;;;;;;;4.85;1.30;;;7.20;95.40;;;;;;5068737;28;20093;-75
2021/11/02 04:01:24;;;;;;;4.97;1.73;;;7.20;95.30;;;;;;5077303;28;20084;-74
2021/11/02 04:58:02;;;;;;;5.10;1.23;;;6.70;93.80;;;;;;5090210;28;20395;-75
2021/11/02 05:46:45;;;;;;;3.97;1.30;;;6.50;94.60;;;;;;5072679;28;20124;-75
2021/11/02 05:48:17;;;;;;;3.03;1.10;;;6.30;92.70;;;;;;5089752;28;20131;-75
2021/11/02 06:06:58;;;;;;;3.58;1.45;;;6.00;91.50;;;;;;5098719;28;20036;-75
2021/11/02 06:09:34;;;;;;;3.28;1.50;;;6.00;91.40;;;;;;5094136;28;20032;-75
2021/11/02 06:29:18;;;;;;;5.05;2.40;;;5.80;91.00;;;;;;5079102;28;20047;-75
2021/11/02 06:37:46;;;;;;;8.48;4.15;;;5.70;91.00;;;;;;5080055;28;20052;-75
2021/11/02 06:57:03;;;;;;;7.03;4.47;;;5.60;90.70;;;;;;5089541;28;20024;-76
2021/11/02 07:18:57;;;;;;;14.30;7.80;;;5.60;90.80;;;;;;5068092;28;20086;-75
2021/11/02 07:21:30;;;;;;;18.73;8.38;;;5.60;90.70;;;;;;5095028;28;20043;-75
2021/11/02 07:24:25;;;;;;;13.48;6.50;;;5.60;90.70;;;;;;5075481;28;20033;-75
2021/11/02 07:26:56;;;;;;;11.60;5.50;;;5.60;90.80;;;;;;5093294;28;20020;-75
2021/11/02 07:30:09;;;;;;;10.75;5.70;;;5.60;91.10;;;;;;5066179;28;20059;-75
2021/11/02 08:48:05;;;;;;;7.53;3.58;;;6.90;92.10;;;;;;5065367;28;20039;-75
2021/11/02 08:50:41;;;;;;;7.72;4.03;;;7.10;92.10;;;;;;5086614;28;20059;-75
2021/11/02 08:53:12;;;;;;;6.07;3.15;;;7.10;92.10;;;;;;5090305;28;20412;-75
2021/11/02 08:55:40;;;;;;;6.20;3.60;;;7.20;92.20;;;;;;5077400;28;20052;-75
2021/11/02 08:58:06;;;;;;;6.63;2.70;;;7.30;92.20;;;;;;5086164;28;20082;-75
2021/11/02 09:00:34;;;;;;;5.82;2.85;;;7.40;92.30;;;;;;5079067;28;20025;-75
2021/11/02 09:03:15;;;;;;;5.55;2.90;;;7.40;92.30;;;;;;5077406;28;20025;-75
2021/11/02 09:05:42;;;;;;;7.05;2.83;;;7.50;92.40;;;;;;5091741;28;20024;-75
2021/11/02 09:08:11;;;;;;;5.22;2.90;;;7.60;92.40;;;;;;5080216;28;20024;-75
2021/11/02 09:10:40;;;;;;;5.47;3.10;;;7.70;92.40;;;;;;5090303;28;20028;-74
2021/11/02 09:13:09;;;;;;;7.35;3.28;;;7.80;92.40;;;;;;5077321;28;20024;-75
2021/11/02 09:15:37;;;;;;;4.93;3.25;;;7.90;92.50;;;;;;5088079;28;20059;-74
2021/11/02 09:18:08;;;;;;;6.32;3.05;;;7.90;92.50;;;;;;5095943;28;20020;-75
2021/11/02 09:20:36;;;;;;;6.63;3.25;;;8.00;92.50;;;;;;5082652;28;20055;-74
2021/11/02 09:23:03;;;;;;;8.38;3.85;;;8.10;92.60;;;;;;5081374;28;20051;-75
2021/11/02 09:25:29;;;;;;;6.60;3.50;;;8.20;92.70;;;;;;5091602;28;20044;-74
2021/11/02 09:27:55;;;;;;;6.07;3.20;;;8.30;92.70;;;;;;5077399;28;20419;-74
2021/11/02 09:30:23;;;;;;;7.72;3.38;;;8.50;92.80;;;;;;5064248;28;20031;-74
2021/11/02 09:32:51;;;;;;;7.05;3.63;;;8.60;92.90;;;;;;5083279;28;20012;-74
2021/11/02 09:35:19;;;;;;;6.60;2.95;;;8.80;93.00;;;;;;5080170;28;20060;-73
2021/11/02 09:38:12;;;;;;;7.13;3.00;;;9.10;93.30;;;;;;5085475;28;20020;-73
2021/11/02 09:41:03;;;;;;;5.63;3.00;;;9.40;93.40;;;;;;5060855;28;20029;-73
2021/11/02 09:43:49;;;;;;;7.40;3.15;;;9.80;93.60;;;;;;5082500;28;20017;-73
2021/11/02 09:46:52;;;;;;;7.57;3.35;;;10.40;93.90;;;;;;5091339;28;20050;-73
2021/11/02 09:49:41;;;;;;;7.53;2.75;;;11.20;93.90;;;;;;5084341;28;20028;-73
2021/11/02 09:52:54;;;;;;;5.30;2.80;;;12.10;93.50;;;;;;5082894;28;20071;-72
2021/11/02 09:55:25;;;;;;;4.88;2.33;;;12.90;92.40;;;;;;5038235;28;20510;-73
2021/11/02 09:58:00;;;;;;;8.75;2.85;;;13.30;91.60;;;;;;5077626;28;20062;-73
2021/11/02 10:00:49;;;;;;;5.55;2.95;;;13.60;90.80;;;;;;5080344;28;20028;-72
2021/11/02 10:03:44;;;;;;;7.18;2.65;;;13.60;90.20;;;;;;5101445;28;20118;-73
2021/11/02 10:06:37;;;;;;;8.75;2.92;;;13.50;90.00;;;;;;5073323;28;20479;-73
2021/11/02 10:09:11;;;;;;;5.13;2.70;;;13.50;89.60;;;;;;5069873;28;20032;-73
2021/11/02 10:11:42;;;;;;;6.32;2.78;;;13.50;89.10;;;;;;5080334;28;20050;-73
2021/11/02 10:14:46;;;;;;;7.82;2.42;;;13.70;89.50;;;;;;5067587;28;20028;-72
2021/11/02 10:17:34;;;;;;;6.43;2.83;;;13.90;89.90;;;;;;5079979;28;20040;-73
2021/11/02 10:20:03;;;;;;;9.50;3.58;;;14.00;89.40;;;;;;5080165;28;20032;-73
2021/11/02 10:22:35;;;;;;;6.53;3.13;;;14.10;88.90;;;;;;5072318;28;20446;-73
2021/11/02 10:25:15;;;;;;;7.13;3.22;;;14.00;88.50;;;;;;5077963;28;20106;-73
2021/11/02 10:28:09;;;;;;;5.80;3.08;;;13.90;88.00;;;;;;5079097;28;20071;-73
2021/11/02 10:30:55;;;;;;;10.75;3.75;;;13.70;88.10;;;;;;5066226;28;20078;-73
2021/11/02 10:33:35;;;;;;;10.10;3.20;;;13.60;88.00;;;;;;5079697;28;20484;-73
2021/11/02 10:36:34;;;;;;;8.00;3.08;;;13.40;87.50;;;;;;5079795;28;20131;-73
2021/11/02 10:39:11;;;;;;;7.03;3.30;;;13.30;87.30;;;;;;5069071;28;20060;-74
2021/11/02 10:41:48;;;;;;;8.73;3.35;;;13.10;87.10;;;;;;5079674;28;20016;-73
2021/11/02 10:44:27;;;;;;;9.35;3.78;;;13.10;86.60;;;;;;5078601;28;20487;-74
2021/11/02 10:46:58;;;;;;;6.53;3.60;;;13.00;86.10;;;;;;5079461;28;20095;-73
2021/11/02 10:50:01;;;;;;;8.77;4.20;;;13.00;86.30;;;;;;5078667;28;20040;-73
2021/11/02 10:52:32;;;;;;;7.95;4.20;;;12.90;85.90;;;;;;5063721;28;20025;-73
2021/11/02 10:55:09;;;;;;;10.70;4.63;;;13.00;86.40;;;;;;5070957;28;20055;-73
2021/11/02 10:57:52;;;;;;;9.73;4.65;;;13.30;87.40;;;;;;5090612;28;20021;-73
2021/11/02 11:00:23;;;;;;;10.18;4.38;;;13.70;86.90;;;;;;5090172;28;20060;-73
2021/11/02 11:02:53;;;;;;;8.70;3.90;;;14.10;86.30;;;;;;5079564;28;20031;-73
2021/11/02 11:05:19;;;;;;;8.65;3.55;;;14.40;85.00;;;;;;5079112;28;20078;-73
2021/11/02 11:07:46;;;;;;;6.55;3.08;;;14.40;83.70;;;;;;5077691;28;20147;-73
2021/11/02 11:10:15;;;;;;;9.27;3.28;;;14.40;82.60;;;;;;5091302;28;20039;-73
2021/11/02 11:12:54;;;;;;;8.02;3.50;;;14.40;82.30;;;;;;5088792;28;20036;-73
2021/11/02 11:15:21;;;;;;;9.52;3.53;;;14.30;82.10;;;;;;5078823;28;20103;-73
2021/11/02 11:17:53;;;;;;;8.13;3.22;;;14.10;82.10;;;;;;5085327;28;20028;-73
2021/11/02 11:20:21;;;;;;;6.93;2.72;;;14.10;82.50;;;;;;5081408;28;20028;-73
2021/11/02 11:22:52;;;;;;;8.40;3.38;;;13.90;82.70;;;;;;5078697;28;20154;-73
2021/11/02 11:25:29;;;;;;;5.80;2.28;;;13.80;82.80;;;;;;5078829;28;20036;-73
2021/11/02 11:27:55;;;;;;;5.72;2.83;;;13.70;83.30;;;;;;5087250;28;20032;-73
2021/11/02 11:30:26;;;;;;;6.43;2.30;;;13.60;83.50;;;;;;5082971;28;20020;-73
2021/11/02 11:32:52;;;;;;;6.25;2.67;;;13.60;83.30;;;;;;5060403;28;20021;-73
2021/11/02 11:35:19;;;;;;;8.82;2.90;;;13.50;83.50;;;;;;5088433;28;20124;-73
2021/11/02 11:37:50;;;;;;;7.53;2.92;;;13.40;83.70;;;;;;5080299;28;20553;-73
2021/11/02 11:40:19;;;;;;;6.70;3.05;;;13.40;83.90;;;;;;5074890;28;20035;-73
2021/11/02 11:42:47;;;;;;;10.82;3.53;;;13.40;84.10;;;;;;5086749;28;20040;-74
2021/11/02 11:45:17;;;;;;;8.25;3.22;;;13.30;84.40;;;;;;5077137;28;20511;-74
2021/11/02 11:47:43;;;;;;;6.07;3.03;;;13.30;84.10;;;;;;5093896;28;20024;-72
2021/11/02 11:50:25;;;;;;;9.18;3.10;;;13.30;84.40;;;;;;5092360;28;20482;-76
2021/11/02 11:52:55;;;;;;;8.85;3.03;;;13.30;84.60;;;;;;5078134;28;20021;-75
2021/11/02 11:55:31;;;;;;;8.75;2.65;;;13.30;84.40;;;;;;5078057;28;20041;-76
2021/11/02 11:58:19;;;;;;;7.50;2.63;;;13.40;84.40;;;;;;5077219;28;20120;-75
2021/11/02 12:00:48;;;;;;;13.05;3.45;;;13.40;84.30;;;;;;5067526;28;20051;-75
2021/11/02 12:03:19;;;;;;;9.25;2.92;;;13.40;84.30;;;;;;5078084;28;20017;-75
2021/11/02 12:05:48;;;;;;;8.53;3.03;;;13.50;84.10;;;;;;5077278;28;20035;-76
2021/11/02 12:08:37;;;;;;;7.25;2.90;;;13.50;84.00;;;;;;5076494;28;20068;-75
2021/11/02 12:11:05;;;;;;;9.15;3.22;;;13.50;84.00;;;;;;5073605;28;20082;-75
2021/11/02 12:13:37;;;;;;;8.50;2.75;;;13.60;83.80;;;;;;5076643;28;20029;-81
2021/11/02 12:16:20;;;;;;;6.28;2.35;;;13.70;83.30;;;;;;5074121;28;20028;-76
2021/11/02 12:18:53;;;;;;;8.85;2.55;;;13.70;83.10;;;;;;5091353;28;20454;-79
2021/11/02 12:21:20;;;;;;;5.68;1.90;;;13.70;82.90;;;;;;5076719;28;20084;-79
2021/11/02 12:23:51;;;;;;;8.32;2.92;;;13.70;82.70;;;;;;5075647;28;20037;-81
2021/11/02 12:26:17;;;;;;;9.95;4.15;;;13.70;82.70;;;;;;5077614;28;20024;-81
2021/11/02 12:28:47;;;;;;;9.38;3.40;;;13.70;82.90;;;;;;5068905;28;20106;-79
2021/11/02 12:31:19;;;;;;;39.35;21.02;;;13.70;83.10;;;;;;5076169;28;20039;-81
2021/11/02 12:33:47;;;;;;;88.20;45.97;;;13.70;83.40;;;;;;5077401;28;20039;-80
2021/11/02 12:36:20;;;;;;;81.53;41.20;;;13.60;83.10;;;;;;5080408;28;20045;-81
2021/11/02 12:38:46;;;;;;;41.58;22.98;;;13.60;82.80;;;;;;5077595;28;20039;-79
2021/11/02 12:41:16;;;;;;;69.90;32.97;;;13.60;83.00;;;;;;5077754;28;20021;-81
2021/11/02 12:43:46;;;;;;;48.67;20.50;;;13.50;83.10;;;;;;5077462;28;20052;-81
2021/11/02 12:46:13;;;;;;;22.95;8.07;;;13.50;83.40;;;;;;5077753;28;20024;-81
2021/11/02 12:48:42;;;;;;;11.05;4.57;;;13.50;83.50;;;;;;5071985;28;20067;-81
2021/11/02 12:51:13;;;;;;;10.18;2.63;;;13.50;83.60;;;;;;5092902;28;20021;-80
2021/11/02 12:53:44;;;;;;;10.13;2.30;;;13.40;83.50;;;;;;5092608;28;20033;-78
2021/11/02 12:56:15;;;;;;;8.63;2.42;;;13.40;83.60;;;;;;5077651;28;20017;-78
2021/11/02 12:58:44;;;;;;;7.13;1.80;;;13.40;83.60;;;;;;5077189;28;20025;-78
2021/11/02 13:01:10;;;;;;;9.38;2.22;;;13.30;83.30;;;;;;5077109;28;20042;-80
2021/11/02 13:03:42;;;;;;;10.65;3.05;;;13.30;83.80;;;;;;5076734;28;20032;-81
2021/11/02 13:06:10;;;;;;;9.80;2.97;;;13.30;83.90;;;;;;5076751;28;20024;-79
2021/11/02 13:08:58;;;;;;;8.32;3.22;;;13.20;83.80;;;;;;5074832;28;20032;-79
2021/11/02 13:11:26;;;;;;;7.15;3.05;;;13.20;83.80;;;;;;5076900;28;20025;-80
2021/11/02 13:14:07;;;;;;;6.82;2.70;;;13.10;83.80;;;;;;5069934;28;20028;-80
2021/11/02 13:17:00;;;;;;;9.50;3.05;;;13.10;84.10;;;;;;5077164;28;20043;-80
2021/11/02 13:19:43;;;;;;;10.90;2.50;;;13.00;84.20;;;;;;5077380;28;20071;-77
2021/11/02 13:22:23;;;;;;;7.82;2.40;;;13.00;84.20;;;;;;5065768;28;20020;-79
2021/11/02 13:25:10;;;;;;;7.95;2.10;;;12.90;84.40;;;;;;5076579;28;20024;-77
2021/11/02 13:27:46;;;;;;;8.48;2.65;;;12.90;84.50;;;;;;5074389;28;20020;-78
2021/11/02 13:30:40;;;;;;;9.55;2.47;;;12.90;84.70;;;;;;5063257;28;20050;-78
2021/11/02 13:33:20;;;;;;;5.43;2.45;;;12.90;85.00;;;;;;5073059;28;20023;-78
2021/11/02 13:36:01;;;;;;;5.85;2.30;;;12.90;85.30;;;;;;5076415;28;20048;-78
2021/11/02 13:38:35;;;;;;;6.60;2.20;;;12.90;85.30;;;;;;5076095;28;20515;-78
2021/11/02 13:41:22;;;;;;;6.55;2.13;;;12.90;85.10;;;;;;5076678;28;20027;-78
2021/11/02 13:43:51;;;;;;;5.95;2.42;;;12.90;85.30;;;;;;5072892;28;20020;-76
2021/11/02 13:46:23;;;;;;;8.02;2.50;;;12.90;85.30;;;;;;5074675;28;20035;-75
2021/11/02 13:48:50;;;;;;;6.65;2.78;;;12.90;85.40;;;;;;5076497;28;20535;-81
2021/11/02 13:51:17;;;;;;;7.82;2.88;;;12.90;85.50;;;;;;5075990;28;20036;-78
2021/11/02 13:53:44;;;;;;;8.70;2.53;;;12.90;85.50;;;;;;5074119;28;20028;-79
2021/11/02 13:56:14;;;;;;;12.63;5.45;;;12.90;85.50;;;;;;5075913;28;20028;-79
2021/11/02 13:58:41;;;;;;;11.65;4.63;;;12.90;85.40;;;;;;5075730;28;20466;-79
2021/11/02 14:01:15;;;;;;;8.98;3.50;;;12.90;85.10;;;;;;5071954;28;20025;-75
2021/11/02 14:04:06;;;;;;;8.05;2.85;;;12.90;84.90;;;;;;5074899;28;20105;-75
2021/11/02 14:06:36;;;;;;;5.22;2.50;;;12.90;85.10;;;;;;5070010;28;20021;-75
2021/11/02 14:09:04;;;;;;;5.50;2.25;;;12.90;85.00;;;;;;5075675;28;20027;-75
2021/11/02 14:11:36;;;;;;;6.78;2.35;;;12.90;85.20;;;;;;5075465;28;20021;-76
2021/11/02 14:14:35;;;;;;;6.47;2.13;;;12.80;84.90;;;;;;5075581;28;20036;-75
2021/11/02 14:17:20;;;;;;;8.73;2.40;;;12.80;84.70;;;;;;5064799;28;20078;-75
2021/11/02 14:19:47;;;;;;;6.28;2.17;;;12.80;84.70;;;;;;5075300;28;20029;-73
2021/11/02 14:22:14;;;;;;;131.80;65.40;;;12.80;84.80;;;;;;5070194;28;20051;-73
2021/11/02 14:24:45;;;;;;;56.85;25.40;;;12.80;84.90;;;;;;5074739;28;20402;-73
2021/11/02 14:27:18;;;;;;;24.98;12.13;;;12.80;85.00;;;;;;5066826;28;20103;-73
2021/11/02 14:29:57;;;;;;;25.85;11.90;;;12.80;84.80;;;;;;5072656;28;20047;-74
2021/11/02 14:32:35;;;;;;;12.30;5.60;;;12.70;84.90;;;;;;5078012;28;20112;-75
2021/11/02 14:35:03;;;;;;;8.18;3.28;;;12.70;84.90;;;;;;5079522;28;21280;-74
2021/11/02 14:37:51;;;;;;;7.85;2.58;;;12.70;84.80;;;;;;5079738;28;20036;-75
2021/11/02 14:40:30;;;;;;;7.70;2.92;;;12.70;85.00;;;;;;5079342;28;20031;-75
2021/11/02 14:42:58;;;;;;;6.25;2.00;;;12.70;84.90;;;;;;5079889;28;20078;-75
2021/11/02 14:45:44;;;;;;;9.75;2.25;;;12.60;84.70;;;;;;5079826;28;20024;-74
2021/11/02 14:48:35;;;;;;;7.57;2.13;;;12.60;84.90;;;;;;5078384;28;20052;-75
2021/11/02 14:51:05;;;;;;;9.02;2.63;;;12.60;85.10;;;;;;5077867;28;20016;-75
2021/11/02 14:53:36;;;;;;;8.65;2.67;;;12.60;85.20;;;;;;5078206;28;20028;-74
2021/11/02 14:56:05;;;;;;;6.00;2.03;;;12.60;85.20;;;;;;5079020;28;20032;-74
2021/11/02 14:58:40;;;;;;;4.78;2.13;;;12.50;85.10;;;;;;5079273;28;20029;-75
2021/11/02 15:01:24;;;;;;;5.68;2.30;;;12.50;85.30;;;;;;5079264;28;20021;-73
2021/11/02 15:04:18;;;;;;;5.05;2.45;;;12.50;85.30;;;;;;5094839;28;20020;-77
2021/11/02 15:06:47;;;;;;;12.80;5.57;;;12.50;85.30;;;;;;5075567;28;20025;-76
2021/11/02 15:09:19;;;;;;;16.65;6.50;;;12.40;85.60;;;;;;5077180;28;20113;-77
2021/11/02 15:11:47;;;;;;;15.20;7.47;;;12.40;85.60;;;;;;5066959;28;20097;-76
2021/11/02 15:14:16;;;;;;;15.75;7.00;;;12.40;85.70;;;;;;5075707;28;20024;-75
2021/11/02 15:16:53;;;;;;;9.18;3.95;;;12.40;85.80;;;;;;5077316;28;20099;-75
2021/11/02 15:19:22;;;;;;;5.93;2.63;;;12.50;85.60;;;;;;5079341;28;20017;-76
2021/11/02 15:21:53;;;;;;;6.10;2.15;;;12.40;85.50;;;;;;5078521;28;20033;-75
2021/11/02 15:24:39;;;;;;;4.63;1.88;;;12.40;85.70;;;;;;5070660;28;20055;-75
2021/11/02 15:27:12;;;;;;;5.53;2.15;;;12.40;85.60;;;;;;5077443;28;20062;-74
2021/11/02 15:29:41;;;;;;;9.75;2.20;;;12.30;85.50;;;;;;5077442;28;20035;-75
2021/11/02 15:32:13;;;;;;;3.95;1.70;;;12.30;85.50;;;;;;5077836;28;20038;-75
2021/11/02 15:34:45;;;;;;;5.65;1.75;;;12.30;85.70;;;;;;5077224;28;20027;-75
2021/11/02 15:37:15;;;;;;;5.68;1.10;;;12.20;84.60;;;;;;5077081;28;20084;-75
2021/11/02 15:39:44;;;;;;;8.70;4.07;;;12.10;84.10;;;;;;5067363;28;20082;-75
2021/11/02 15:42:28;;;;;;;34.28;14.27;;;12.10;83.70;;;;;;5077132;28;20047;-76
2021/11/02 15:44:57;;;;;;;21.65;8.43;;;12.00;83.60;;;;;;5076513;28;20048;-75
2021/11/02 15:47:25;;;;;;;11.73;4.05;;;11.80;83.70;;;;;;5077970;28;20391;-76
2021/11/02 15:50:05;;;;;;;6.93;2.63;;;11.80;84.00;;;;;;5078062;28;20035;-75
2021/11/02 15:52:33;;;;;;;6.13;2.90;;;11.60;84.50;;;;;;5071179;28;20029;-76
2021/11/02 15:55:15;;;;;;;7.68;3.55;;;11.60;84.60;;;;;;5076287;28;20487;-75
2021/11/02 15:57:53;;;;;;;6.68;3.67;;;11.50;84.80;;;;;;5075368;28;20025;-74
2021/11/02 16:00:21;;;;;;;7.05;3.95;;;11.40;85.00;;;;;;5073113;28;20017;-75
2021/11/02 16:02:48;;;;;;;8.25;4.75;;;11.40;85.20;;;;;;5072301;28;20506;-75
2021/11/02 16:05:31;;;;;;;7.82;3.85;;;11.30;85.20;;;;;;5075970;28;20028;-75
2021/11/02 16:07:57;;;;;;;8.20;3.33;;;11.30;85.80;;;;;;5064899;28;20178;-75
2021/11/02 16:10:29;;;;;;;9.18;3.88;;;11.20;86.40;;;;;;5076051;28;20049;-75
2021/11/02 16:12:55;;;;;;;5.20;1.90;;;11.20;86.80;;;;;;5076884;28;20040;-75
2021/11/02 16:15:28;;;;;;;5.47;1.75;;;11.10;86.80;;;;;;5076859;28;20029;-74
2021/11/02 16:17:58;;;;;;;6.68;1.50;;;11.10;87.00;;;;;;5077315;28;20074;-75
2021/11/02 16:20:36;;;;;;;3.85;1.77;;;11.00;87.60;;;;;;5077372;28;20044;-75
2021/11/02 16:23:07;;;;;;;4.13;1.63;;;11.00;88.00;;;;;;5075839;28;20050;-75
2021/11/02 16:25:39;;;;;;;5.18;2.00;;;10.90;88.20;;;;;;5077766;28;20020;-75
2021/11/02 16:28:12;;;;;;;;;;;10.80;88.60;;;;;;5078503;28;20063;-75
2021/11/02 16:30:40;;;;;;;7.70;2.35;;;10.70;89.10;;;;;;5077077;28;19904;-75
2021/11/02 16:33:07;;;;;;;6.03;2.53;;;10.70;89.30;;;;;;5077805;28;20029;-75
2021/11/02 16:35:42;;;;;;;10.98;5.88;;;10.60;88.80;;;;;;5077553;28;20040;-75
2021/11/02 16:38:35;;;;;;;9.23;6.15;;;10.60;89.40;;;;;;5077629;28;20028;-75
2021/11/02 16:41:04;;;;;;;8.40;5.00;;;10.60;89.10;;;;;;5066675;28;20032;-75
2021/11/02 16:43:51;;;;;;;10.48;5.55;;;10.50;89.00;;;;;;5077578;28;20025;-75
2021/11/02 16:46:34;;;;;;;14.70;7.22;;;10.50;88.60;;;;;;5077908;28;20020;-75
2021/11/02 16:49:10;;;;;;;14.73;6.95;;;10.40;88.20;;;;;;5065702;28;20028;-75
2021/11/02 16:51:51;;;;;;;14.63;7.80;;;10.40;88.20;;;;;;5077293;28;20032;-75
2021/11/02 16:54:29;;;;;;;30.83;14.55;;;10.40;88.10;;;;;;5077348;28;20073;-75
2021/11/02 16:57:01;;;;;;;34.97;18.65;;;10.30;88.10;;;;;;5064635;28;20027;-75
2021/11/02 16:59:39;;;;;;;30.13;15.90;;;10.30;88.10;;;;;;5077120;28;20024;-75
2021/11/02 17:02:23;;;;;;;28.70;14.57;;;10.30;88.20;;;;;;5076045;28;20048;-75
2021/11/02 17:05:13;;;;;;;16.08;9.57;;;10.30;88.40;;;;;;5077523;28;20017;-76
2021/11/02 17:07:48;;;;;;;13.68;7.50;;;10.30;88.80;;;;;;5066739;28;20024;-75
2021/11/02 17:10:26;;;;;;;15.20;6.93;;;10.30;89.00;;;;;;5077024;28;20028;-76
2021/11/02 17:13:04;;;;;;;13.43;7.07;;;10.30;88.70;;;;;;5077397;28;20395;-75
2021/11/02 17:15:34;;;;;;;13.05;7.40;;;10.20;88.60;;;;;;5076764;28;20036;-76
2021/11/02 17:18:02;;;;;;;14.38;7.78;;;10.20;88.50;;;;;;5076988;28;20028;-76
2021/11/02 17:20:28;;;;;;;12.07;7.63;;;10.20;88.70;;;;;;5075926;28;20019;-76
2021/11/02 17:22:54;;;;;;;15.63;8.98;;;10.20;88.70;;;;;;5071530;28;20484;-75
2021/11/02 17:25:22;;;;;;;13.05;8.25;;;10.20;88.70;;;;;;5077204;28;20100;-75
2021/11/02 17:27:49;;;;;;;13.77;9.30;;;10.10;88.50;;;;;;5073999;28;20166;-75
2021/11/02 17:30:27;;;;;;;16.80;10.43;;;10.10;88.60;;;;;;5075257;28;20024;-73
2021/11/02 17:32:55;;;;;;;14.25;8.73;;;10.10;88.70;;;;;;5075905;28;20028;-75
2021/11/02 17:35:22;;;;;;;14.73;8.27;;;10.10;88.80;;;;;;5076407;28;20073;-75
2021/11/02 17:37:51;;;;;;;15.30;9.60;;;10.10;89.40;;;;;;5076032;28;20020;-73
2021/11/02 17:40:18;;;;;;;17.63;11.57;;;10.10;90.00;;;;;;5072890;28;20016;-73
2021/11/02 17:42:46;;;;;;;14.82;10.80;;;10.10;90.00;;;;;;5076594;28;20483;-74
2021/11/02 17:45:13;;;;;;;16.92;11.57;;;10.10;90.40;;;;;;5074457;28;20080;-74
2021/11/02 17:47:44;;;;;;;16.05;11.18;;;10.10;90.60;;;;;;5076629;28;20025;-74
2021/11/02 17:50:11;;;;;;;14.63;11.13;;;10.10;90.60;;;;;;5076265;28;20072;-74
2021/11/02 17:52:37;;;;;;;19.55;12.50;;;10.10;90.70;;;;;;5074450;28;20020;-72
2021/11/02 17:55:08;;;;;;;15.82;10.82;;;10.10;90.90;;;;;;5070273;28;20103;-77
2021/11/02 17:57:48;;;;;;;18.88;10.73;;;10.10;91.20;;;;;;5074203;28;20159;-75
2021/11/02 18:00:18;;;;;;;18.30;10.98;;;10.00;91.10;;;;;;5075530;28;20036;-73
2021/11/02 18:02:47;;;;;;;14.38;10.05;;;10.00;91.10;;;;;;5078931;28;20013;-72
2021/11/02 18:05:13;;;;;;;14.55;8.85;;;10.10;91.50;;;;;;5074998;28;20067;-76